Time;durP1;ratioP1;P1;durP2;ratioP2;P2;SDS_P1;SDS_P2;PMS_P1;PMS_P2;Temp;Humidity;BMP_temperature;BMP_pressure;BME280_temperature;BME280_humidity;BME280_pressure;Samples;Min_cycle;Max_cycle;Signal;HPM_P1;HPM_P2
2022/08/19 00:00:04;;;;;;;41.47;36.70;;;20.10;99.90;;;;;;5034367;28;20496;-69
2022/08/19 00:02:29;;;;;;;50.28;37.85;;;20.00;99.90;;;;;;5034527;28;20493;-71
2022/08/19 00:04:55;;;;;;;46.42;38.20;;;20.00;99.90;;;;;;5034193;28;20081;-69
2022/08/19 00:07:21;;;;;;;45.22;38.22;;;20.10;99.90;;;;;;5032936;28;20041;-69
2022/08/19 00:09:47;;;;;;;48.97;38.85;;;19.90;99.90;;;;;;5034032;28;20112;-69
2022/08/19 00:12:13;;;;;;;50.53;39.17;;;20.20;99.90;;;;;;5033964;28;20457;-69
2022/08/19 00:14:40;;;;;;;51.10;39.15;;;20.30;99.90;;;;;;5033782;28;20029;-69
2022/08/19 00:17:08;;;;;;;48.17;38.22;;;20.30;99.90;;;;;;5034088;28;20029;-69
2022/08/19 00:19:35;;;;;;;54.20;40.63;;;20.40;99.90;;;;;;5034090;28;20029;-71
2022/08/19 00:22:02;;;;;;;50.05;39.63;;;20.50;99.90;;;;;;5033810;28;20090;-73
2022/08/19 00:24:28;;;;;;;53.92;38.95;;;20.70;99.90;;;;;;5033641;28;20390;-69
2022/08/19 00:26:56;;;;;;;49.97;40.45;;;20.90;99.90;;;;;;5033835;28;20458;-69
2022/08/19 00:29:23;;;;;;;48.47;38.97;;;21.00;99.90;;;;;;5033075;28;20033;-69
2022/08/19 00:31:54;;;;;;;49.50;38.10;;;20.70;99.90;;;;;;5032682;28;20041;-69
2022/08/19 00:34:21;;;;;;;46.38;37.60;;;20.40;99.90;;;;;;5033399;28;20064;-72
2022/08/19 00:36:48;;;;;;;52.33;37.97;;;20.10;99.90;;;;;;5033334;28;20021;-68
2022/08/19 00:39:15;;;;;;;49.20;39.70;;;20.00;99.90;;;;;;5033563;28;20036;-69
2022/08/19 00:41:42;;;;;;;52.47;40.63;;;20.30;99.90;;;;;;5019985;28;20033;-69
2022/08/19 00:44:19;;;;;;;46.88;38.58;;;20.50;99.90;;;;;;5033786;28;20377;-69
2022/08/19 00:46:47;;;;;;;49.05;37.30;;;20.50;99.90;;;;;;5033233;28;20032;-70
2022/08/19 00:49:19;;;;;;;50.83;38.80;;;20.30;99.90;;;;;;5033573;28;20017;-71
2022/08/19 00:51:47;;;;;;;;;;;19.90;99.90;;;;;;5033121;28;20533;-73
2022/08/19 00:54:13;;;;;;;45.33;38.22;;;20.00;99.90;;;;;;5033638;28;19920;-69
2022/08/19 00:56:40;;;;;;;47.15;39.00;;;20.00;99.90;;;;;;5033043;28;20022;-69
2022/08/19 00:59:08;;;;;;;48.42;39.05;;;19.70;99.90;;;;;;5033290;28;20033;-73
2022/08/19 01:01:37;;;;;;;47.20;38.72;;;19.50;99.90;;;;;;5032811;28;20021;-68
2022/08/19 01:04:03;;;;;;;49.80;39.83;;;19.30;99.90;;;;;;5033085;28;20021;-72
2022/08/19 01:06:32;;;;;;;53.63;41.53;;;19.10;99.90;;;;;;5040155;28;20042;-69
2022/08/19 01:08:59;;;;;;;47.97;39.38;;;19.20;99.90;;;;;;5033149;28;20100;-69
2022/08/19 01:11:26;;;;;;;54.10;41.35;;;19.30;99.90;;;;;;5033098;28;20032;-68
2022/08/19 01:13:53;;;;;;;54.50;40.60;;;19.50;99.90;;;;;;5033021;28;20091;-69
2022/08/19 01:16:22;;;;;;;58.08;41.08;;;19.70;99.90;;;;;;5032873;28;20030;-68
2022/08/19 01:18:48;;;;;;;54.15;41.67;;;19.80;99.90;;;;;;5033252;28;20029;-69
2022/08/19 01:21:40;;;;;;;62.35;43.55;;;20.10;99.90;;;;;;5032783;28;20047;-70
2022/08/19 01:24:06;;;;;;;59.25;42.88;;;20.10;99.90;;;;;;5032775;28;20068;-71
2022/08/19 01:26:41;;;;;;;55.88;43.22;;;19.90;99.90;;;;;;5032895;28;20028;-73
2022/08/19 01:29:07;;;;;;;63.30;45.03;;;19.80;99.90;;;;;;5032965;28;20036;-70
2022/08/19 01:31:34;;;;;;;62.88;43.97;;;20.00;99.90;;;;;;5032660;28;20038;-69
2022/08/19 01:34:02;;;;;;;63.30;44.28;;;19.80;99.90;;;;;;5032688;28;20052;-70
2022/08/19 01:36:47;;;;;;;59.05;44.10;;;20.00;99.90;;;;;;5032284;28;20537;-69
2022/08/19 01:39:21;;;;;;;59.35;43.20;;;19.90;99.90;;;;;;5032725;28;20033;-71
2022/08/19 01:41:47;;;;;;;62.22;43.67;;;19.80;99.90;;;;;;5023177;28;20147;-69
2022/08/19 01:44:14;;;;;;;56.80;41.78;;;19.70;99.90;;;;;;5036957;28;20033;-69
2022/08/19 01:46:42;;;;;;;56.95;41.22;;;19.50;99.90;;;;;;5036579;28;20045;-68
2022/08/19 01:49:08;;;;;;;54.05;40.22;;;19.50;99.90;;;;;;5036605;28;20021;-68
2022/08/19 01:51:35;;;;;;;54.33;38.78;;;19.60;99.90;;;;;;5035261;28;20079;-70
2022/08/19 01:54:01;;;;;;;54.45;38.63;;;19.60;99.90;;;;;;5035193;28;20045;-68
2022/08/19 01:56:26;;;;;;;43.53;34.47;;;19.70;99.90;;;;;;5036366;28;20032;-69
2022/08/19 01:58:57;;;;;;;50.78;35.55;;;19.50;99.90;;;;;;5036476;28;20025;-69
2022/08/19 02:01:23;;;;;;;54.70;36.00;;;19.30;99.90;;;;;;5036799;28;20025;-72
2022/08/19 02:03:49;;;;;;;50.80;35.80;;;19.10;99.90;;;;;;5036019;28;20025;-70
2022/08/19 02:06:16;;;;;;;48.38;33.85;;;19.10;99.90;;;;;;5036450;28;20128;-68
2022/08/19 02:08:45;;;;;;;52.53;36.42;;;19.00;99.90;;;;;;5034956;28;20413;-68
2022/08/19 02:11:20;;;;;;;48.08;34.35;;;19.20;99.90;;;;;;5036459;28;20488;-68
2022/08/19 02:13:46;;;;;;;47.60;34.38;;;19.10;99.90;;;;;;5036099;28;20042;-68
2022/08/19 02:16:12;;;;;;;47.70;34.05;;;19.10;99.90;;;;;;5036288;28;20535;-71
2022/08/19 02:18:37;;;;;;;47.35;33.63;;;18.90;99.90;;;;;;5035956;28;20032;-73
2022/08/19 02:21:03;;;;;;;50.03;34.17;;;19.00;99.90;;;;;;5036056;28;20456;-69
2022/08/19 02:23:29;;;;;;;45.50;34.65;;;19.00;99.90;;;;;;5035978;28;20067;-72
2022/08/19 02:25:55;;;;;;;45.25;33.38;;;19.20;99.90;;;;;;5035999;28;20389;-68
2022/08/19 02:28:21;;;;;;;46.75;32.40;;;19.30;99.90;;;;;;5036207;28;20038;-68
2022/08/19 02:30:47;;;;;;;53.85;34.60;;;19.20;99.90;;;;;;5036035;28;20025;-68
2022/08/19 02:33:14;;;;;;;47.13;33.53;;;19.60;99.90;;;;;;5035771;28;20036;-68
2022/08/19 02:35:47;;;;;;;48.45;33.40;;;19.60;99.90;;;;;;5036267;28;20057;-68
2022/08/19 02:38:26;;;;;;;44.05;32.55;;;19.30;99.90;;;;;;5035537;28;20378;-69
2022/08/19 02:41:00;;;;;;;40.45;31.83;;;19.20;99.90;;;;;;5035791;28;20030;-69
2022/08/19 02:43:28;;;;;;;52.92;33.15;;;19.10;99.90;;;;;;5035839;28;20037;-72
2022/08/19 02:45:54;;;;;;;50.90;34.88;;;19.00;99.90;;;;;;5035648;28;20020;-71
2022/08/19 02:48:22;;;;;;;49.47;32.95;;;18.80;99.90;;;;;;5035105;28;20041;-71
2022/08/19 02:50:54;;;;;;;45.15;32.42;;;18.80;99.90;;;;;;5035304;28;20108;-72
2022/08/19 02:53:27;;;;;;;53.20;33.22;;;19.00;99.90;;;;;;5035452;28;20037;-69
2022/08/19 02:55:53;;;;;;;44.38;33.30;;;19.10;99.90;;;;;;5035455;28;20063;-71
2022/08/19 02:58:21;;;;;;;49.92;34.83;;;18.90;99.90;;;;;;5035273;28;20027;-69
2022/08/19 03:00:49;;;;;;;46.80;34.15;;;19.00;99.90;;;;;;5035387;28;20032;-69
2022/08/19 03:03:16;;;;;;;53.00;35.95;;;18.90;99.90;;;;;;5034853;28;20033;-70
2022/08/19 03:05:42;;;;;;;50.20;35.75;;;19.00;99.90;;;;;;5035266;28;20037;-70
2022/08/19 03:08:12;;;;;;;49.55;34.45;;;19.10;99.90;;;;;;5035390;28;20486;-69
2022/08/19 03:10:47;;;;;;;52.30;34.17;;;19.20;99.90;;;;;;5034963;28;20029;-69
2022/08/19 03:13:17;;;;;;;57.78;34.92;;;18.90;99.90;;;;;;5035070;28;20045;-69
2022/08/19 03:15:46;;;;;;;54.90;33.80;;;19.10;99.90;;;;;;5035150;28;20366;-70
2022/08/19 03:18:13;;;;;;;57.33;35.85;;;18.90;99.90;;;;;;5034912;28;20029;-69
2022/08/19 03:20:48;;;;;;;59.17;36.67;;;18.80;99.90;;;;;;5035044;28;20021;-69
2022/08/19 03:23:16;;;;;;;55.13;35.05;;;18.90;99.90;;;;;;5035052;28;20033;-68
2022/08/19 03:25:47;;;;;;;53.22;35.38;;;18.60;99.90;;;;;;5034642;28;20031;-68
2022/08/19 03:28:14;;;;;;;;;;;18.40;99.90;;;;;;5035537;28;20369;-68
2022/08/19 03:30:43;;;;;;;57.03;32.60;;;18.20;99.90;;;;;;5034338;28;19951;-68
2022/08/19 03:33:11;;;;;;;50.30;33.88;;;18.20;99.90;;;;;;5034903;28;20060;-68
2022/08/19 03:35:38;;;;;;;47.60;32.38;;;18.00;99.90;;;;;;5034203;28;20030;-69
2022/08/19 03:38:06;;;;;;;52.17;33.38;;;18.00;99.90;;;;;;5024198;28;20416;-68
2022/08/19 03:40:34;;;;;;;51.17;32.65;;;18.00;99.90;;;;;;5034698;28;20021;-69
2022/08/19 03:43:00;;;;;;;46.60;33.30;;;18.20;99.90;;;;;;5034506;28;20407;-69
2022/08/19 03:45:27;;;;;;;49.20;32.63;;;18.20;99.90;;;;;;5034255;28;20033;-68
2022/08/19 03:47:53;;;;;;;50.83;31.77;;;18.30;99.90;;;;;;5034479;28;20022;-69
2022/08/19 03:50:19;;;;;;;54.17;31.15;;;18.30;99.90;;;;;;5034547;28;20040;-68
2022/08/19 03:52:50;;;;;;;50.75;31.77;;;18.20;99.90;;;;;;5034341;28;20029;-68
2022/08/19 03:55:17;;;;;;;51.33;32.17;;;18.40;99.90;;;;;;5035162;28;20033;-69
2022/08/19 03:57:43;;;;;;;47.55;30.40;;;18.30;99.90;;;;;;5034463;28;20030;-68
2022/08/19 04:00:09;;;;;;;49.17;30.50;;;18.30;99.90;;;;;;5033985;28;20370;-70
2022/08/19 04:02:35;;;;;;;50.63;30.58;;;18.20;99.90;;;;;;5033919;28;20029;-68
2022/08/19 04:05:01;;;;;;;53.22;29.77;;;18.00;99.90;;;;;;5033465;28;20124;-68
2022/08/19 04:07:27;;;;;;;50.33;31.15;;;18.20;99.90;;;;;;5034578;28;20087;-68
2022/08/19 04:09:53;;;;;;;45.30;29.20;;;18.20;99.90;;;;;;5034100;28;20037;-70
2022/08/19 04:12:20;;;;;;;50.05;29.38;;;18.20;99.90;;;;;;5034116;28;20026;-69
2022/08/19 04:14:46;;;;;;;57.85;29.17;;;18.00;99.90;;;;;;5033713;28;20045;-68
2022/08/19 04:17:13;;;;;;;48.67;29.40;;;18.00;99.90;;;;;;5034179;28;20384;-69
2022/08/19 04:19:40;;;;;;;57.40;30.42;;;17.80;99.90;;;;;;5033983;28;20075;-71
2022/08/19 04:22:06;;;;;;;46.33;27.58;;;17.80;99.90;;;;;;5033726;28;20024;-69
2022/08/19 04:24:34;;;;;;;46.40;27.77;;;17.80;99.90;;;;;;5033816;28;20036;-69
2022/08/19 04:27:01;;;;;;;50.53;28.42;;;17.80;99.90;;;;;;5033992;28;20098;-67
2022/08/19 04:29:27;;;;;;;40.28;27.73;;;17.90;99.90;;;;;;5033584;28;20090;-68
2022/08/19 04:31:56;;;;;;;42.83;26.75;;;18.00;99.90;;;;;;5033683;28;20089;-68
2022/08/19 04:34:25;;;;;;;50.42;28.35;;;18.00;99.90;;;;;;5032247;28;20150;-68
2022/08/19 04:36:53;;;;;;;48.42;27.27;;;18.10;99.90;;;;;;5033537;28;20040;-69
2022/08/19 04:42:38;;;;;;;45.78;27.80;;;18.20;99.90;;;;;;5033684;28;20009;-70
2022/08/19 04:44:54;;;;;;;48.50;26.77;;;18.30;99.90;;;;;;5032399;28;20030;-70
2022/08/19 04:47:20;;;;;;;50.55;26.05;;;18.20;99.90;;;;;;5033344;28;20067;-70
2022/08/19 04:49:46;;;;;;;45.67;25.98;;;18.10;99.90;;;;;;5033384;28;20060;-68
2022/08/19 04:52:12;;;;;;;42.78;25.58;;;17.90;99.90;;;;;;5033641;28;20113;-69
2022/08/19 04:54:38;;;;;;;37.97;25.25;;;18.00;99.90;;;;;;5033090;28;20543;-69
2022/08/19 04:57:06;;;;;;;46.17;25.63;;;17.90;99.90;;;;;;5033070;28;20082;-69
2022/08/19 04:59:33;;;;;;;47.55;25.13;;;17.70;99.90;;;;;;5033080;28;20029;-68
2022/08/19 05:01:59;;;;;;;44.65;26.08;;;17.80;99.90;;;;;;5033449;28;20175;-69
2022/08/19 05:04:24;;;;;;;43.83;25.20;;;17.80;99.90;;;;;;5033042;28;20145;-68
2022/08/19 05:06:52;;;;;;;48.47;24.35;;;17.90;99.90;;;;;;5032742;28;20075;-70
2022/08/19 05:09:18;;;;;;;40.33;24.50;;;18.10;99.90;;;;;;5033254;28;20036;-68
2022/08/19 05:11:44;;;;;;;39.30;24.40;;;18.30;99.90;;;;;;5033291;28;20029;-69
2022/08/19 05:14:12;;;;;;;43.30;23.17;;;18.30;99.90;;;;;;5032666;28;20124;-68
2022/08/19 05:16:40;;;;;;;47.92;23.77;;;18.40;99.90;;;;;;5032852;28;20021;-69
2022/08/19 05:24:36;;;;;;;45.30;22.00;;;18.50;99.90;;;;;;5032974;28;20049;-67
2022/08/19 05:27:04;;;;;;;37.78;21.17;;;18.60;99.90;;;;;;5032678;28;20029;-69
2022/08/19 05:29:31;;;;;;;46.30;21.02;;;18.50;99.90;;;;;;5032901;28;20036;-68
2022/08/19 05:31:58;;;;;;;37.72;20.65;;;18.70;99.90;;;;;;5032928;28;20040;-70
2022/08/19 05:34:25;;;;;;;35.65;20.98;;;18.50;99.90;;;;;;5032699;28;20045;-68
2022/08/19 05:36:56;;;;;;;35.33;21.02;;;18.40;99.90;;;;;;5032767;28;20021;-69
2022/08/19 05:39:26;;;;;;;37.25;20.77;;;18.30;99.90;;;;;;5045376;28;20033;-69
2022/08/19 05:41:58;;;;;;;33.78;20.75;;;18.30;99.90;;;;;;5032406;28;20021;-71
2022/08/19 05:44:25;;;;;;;40.38;21.58;;;18.30;99.90;;;;;;5026690;28;20478;-71
2022/08/19 05:46:52;;;;;;;37.97;20.17;;;18.30;99.90;;;;;;5028489;28;20068;-71
2022/08/19 05:49:21;;;;;;;52.60;23.55;;;18.10;99.90;;;;;;5036835;28;20022;-73
2022/08/19 05:51:47;;;;;;;42.55;22.85;;;18.20;99.90;;;;;;5031833;28;20021;-71
2022/08/19 05:54:13;;;;;;;39.65;23.23;;;18.20;99.90;;;;;;5031717;28;20156;-71
2022/08/19 05:56:41;;;;;;;42.55;22.80;;;18.30;99.90;;;;;;5031013;28;20060;-72
2022/08/19 05:59:10;;;;;;;43.28;23.55;;;18.30;99.90;;;;;;5034098;28;20026;-71
2022/08/19 06:01:41;;;;;;;37.83;22.75;;;18.20;99.90;;;;;;5041609;28;20036;-72
2022/08/19 06:04:07;;;;;;;34.10;21.85;;;18.20;99.90;;;;;;5033786;28;20026;-71
2022/08/19 06:06:34;;;;;;;37.30;21.38;;;18.20;99.90;;;;;;5025499;28;20539;-72
2022/08/19 06:09:02;;;;;;;38.92;22.75;;;18.40;99.90;;;;;;5025934;28;20044;-71
2022/08/19 06:11:38;;;;;;;31.83;20.75;;;18.50;99.90;;;;;;5034281;28;20033;-72
2022/08/19 06:14:08;;;;;;;44.95;20.08;;;18.50;99.90;;;;;;5034883;28;20051;-72
2022/08/19 06:16:37;;;;;;;32.05;19.05;;;18.60;99.90;;;;;;5032995;28;20139;-71
2022/08/19 06:19:07;;;;;;;42.08;19.58;;;18.70;99.90;;;;;;5031504;28;20099;-71
2022/08/19 06:21:36;;;;;;;29.27;19.17;;;18.60;99.90;;;;;;5031546;28;20025;-72
2022/08/19 06:24:04;;;;;;;38.00;19.40;;;18.90;99.90;;;;;;5031198;28;20385;-73
2022/08/19 06:26:30;;;;;;;42.42;20.60;;;19.10;99.90;;;;;;5035395;28;20022;-72
2022/08/19 06:28:57;;;;;;;30.58;16.48;;;19.20;99.90;;;;;;5035778;28;20041;-72
2022/08/19 06:31:27;;;;;;;31.08;18.38;;;19.10;99.90;;;;;;5033499;28;20021;-71
2022/08/19 06:33:53;;;;;;;33.67;16.05;;;19.20;99.90;;;;;;5034480;28;20486;-74
2022/08/19 06:36:29;;;;;;;28.20;15.73;;;19.20;99.90;;;;;;5039967;28;20029;-72
2022/08/19 06:38:59;;;;;;;48.65;15.07;;;19.00;99.90;;;;;;5036856;28;20385;-72
2022/08/19 06:41:26;;;;;;;33.25;17.80;;;18.70;99.90;;;;;;5026247;28;20026;-72
2022/08/19 06:43:52;;;;;;;25.92;16.27;;;18.90;99.90;;;;;;5032476;28;20032;-72
2022/08/19 06:46:19;;;;;;;33.53;16.23;;;18.90;99.90;;;;;;5034668;28;20101;-74
2022/08/19 06:48:46;;;;;;;34.75;17.25;;;19.10;99.90;;;;;;5036064;28;20545;-72
2022/08/19 06:51:18;;;;;;;35.90;16.02;;;19.10;99.90;;;;;;5035906;28;20029;-72
2022/08/19 06:53:48;;;;;;;32.75;17.60;;;19.40;99.90;;;;;;5033854;28;20037;-71
2022/08/19 06:56:24;;;;;;;33.83;17.02;;;19.60;99.90;;;;;;5031831;28;20466;-73
2022/08/19 06:58:52;;;;;;;34.97;17.65;;;19.80;99.90;;;;;;5024689;28;20022;-72
2022/08/19 07:01:19;;;;;;;35.13;15.82;;;19.20;99.90;;;;;;5044183;28;20033;-69
2022/08/19 07:03:46;;;;;;;28.15;16.33;;;19.30;99.90;;;;;;5037828;28;20029;-70
2022/08/19 07:06:17;;;;;;;38.88;18.15;;;19.30;99.90;;;;;;5044520;28;20032;-68
2022/08/19 07:08:46;;;;;;;33.33;18.02;;;19.20;99.90;;;;;;5047977;28;20486;-68
2022/08/19 07:11:14;;;;;;;39.03;21.23;;;19.30;99.90;;;;;;5044679;28;20013;-70
2022/08/19 07:13:43;;;;;;;36.65;20.63;;;19.40;99.90;;;;;;5041708;28;20037;-70
2022/08/19 07:16:12;;;;;;;40.80;20.80;;;19.50;99.90;;;;;;5035611;28;20072;-68
2022/08/19 07:18:38;;;;;;;41.38;21.17;;;19.70;99.90;;;;;;5046931;28;20045;-69
2022/08/19 07:21:05;;;;;;;30.83;21.35;;;19.70;99.90;;;;;;5045471;28;20108;-70
2022/08/19 07:23:32;;;;;;;38.05;21.45;;;19.90;99.90;;;;;;5045296;28;20060;-70
2022/08/19 07:25:58;;;;;;;42.55;20.98;;;19.70;99.90;;;;;;5037608;28;20028;-71
2022/08/19 07:28:24;;;;;;;43.60;23.80;;;19.80;99.90;;;;;;5034968;28;20037;-69
2022/08/19 07:30:50;;;;;;;40.92;23.17;;;19.90;99.90;;;;;;5045915;28;20025;-70
2022/08/19 07:33:17;;;;;;;41.33;23.08;;;20.00;99.90;;;;;;5045793;28;20437;-70
2022/08/19 07:35:43;;;;;;;46.08;24.98;;;19.60;99.90;;;;;;5041605;28;20393;-69
2022/08/19 07:38:10;;;;;;;38.30;22.60;;;19.40;99.90;;;;;;5033162;28;20032;-69
2022/08/19 07:40:36;;;;;;;48.45;22.83;;;19.40;99.90;;;;;;5046969;28;20079;-70
2022/08/19 07:43:02;;;;;;;37.58;22.15;;;19.50;99.90;;;;;;5045699;28;20021;-69
2022/08/19 07:45:28;;;;;;;39.60;24.23;;;19.60;99.90;;;;;;5042502;28;20143;-69
2022/08/19 07:47:54;;;;;;;38.25;22.25;;;19.80;99.90;;;;;;5038807;28;20505;-68
2022/08/19 07:50:21;;;;;;;35.90;21.67;;;20.00;99.90;;;;;;5035089;28;20116;-68
2022/08/19 07:52:49;;;;;;;42.20;23.17;;;20.40;99.90;;;;;;5046567;28;20032;-70
2022/08/19 07:55:17;;;;;;;41.88;25.05;;;20.40;99.90;;;;;;5046278;28;20048;-68
2022/08/19 07:57:43;;;;;;;40.67;21.70;;;20.50;99.90;;;;;;5044180;28;20461;-69
2022/08/19 08:00:09;;;;;;;33.20;20.83;;;20.00;99.90;;;;;;5033188;28;20033;-69
2022/08/19 08:02:39;;;;;;;36.72;22.38;;;19.80;99.90;;;;;;5032573;28;20048;-69
2022/08/19 08:10:34;;;;;;;34.55;19.33;;;19.80;99.90;;;;;;5024904;28;20028;-70
2022/08/19 08:13:00;;;;;;;27.52;17.95;;;19.90;99.90;;;;;;5034071;28;20029;-70
2022/08/19 08:15:26;;;;;;;24.92;18.05;;;20.00;99.90;;;;;;5032730;28;20046;-70
2022/08/19 08:17:51;;;;;;;26.00;17.58;;;19.90;99.90;;;;;;5034185;28;20017;-69
2022/08/19 08:20:18;;;;;;;23.17;16.45;;;20.20;99.90;;;;;;5033706;28;20033;-69
2022/08/19 08:25:31;;;;;;;27.25;16.75;;;20.00;99.90;;;;;;5033581;28;20029;-69
2022/08/19 08:28:00;;;;;;;25.52;17.77;;;20.30;99.90;;;;;;5033544;28;20083;-66
2022/08/19 08:30:27;;;;;;;25.20;16.75;;;20.50;99.90;;;;;;5033649;28;20033;-69
2022/08/19 08:32:54;;;;;;;32.08;17.92;;;20.60;99.90;;;;;;5019427;28;20454;-67
2022/08/19 08:35:22;;;;;;;31.27;16.58;;;20.50;99.90;;;;;;5033031;28;20049;-66
2022/08/19 08:37:52;;;;;;;25.10;17.08;;;20.60;99.90;;;;;;5033579;28;20041;-67
2022/08/19 08:40:32;;;;;;;26.63;16.58;;;20.70;99.90;;;;;;5033385;28;20433;-67
2022/08/19 08:43:15;;;;;;;27.13;16.40;;;20.70;99.90;;;;;;5031727;28;20106;-67
2022/08/19 08:46:00;;;;;;;28.63;16.08;;;20.70;99.90;;;;;;5031117;28;20030;-66
2022/08/19 08:48:41;;;;;;;29.13;15.70;;;20.70;99.90;;;;;;5034596;28;20061;-66
2022/08/19 08:51:15;;;;;;;24.05;16.70;;;20.30;99.90;;;;;;5024752;28;20045;-66
2022/08/19 08:53:43;;;;;;;22.80;14.45;;;20.30;99.90;;;;;;5032144;28;20033;-69
2022/08/19 08:56:12;;;;;;;24.80;16.60;;;20.30;99.90;;;;;;5031855;28;20025;-67
2022/08/19 08:58:44;;;;;;;25.38;16.60;;;20.20;99.90;;;;;;5031820;28;20029;-67
2022/08/19 09:01:11;;;;;;;26.90;17.30;;;20.30;99.90;;;;;;5037617;28;20069;-67
2022/08/19 09:03:40;;;;;;;25.92;15.50;;;20.50;99.90;;;;;;5036759;28;20478;-66
2022/08/19 09:06:18;;;;;;;31.02;17.45;;;20.60;99.90;;;;;;5027284;28;20126;-66
2022/08/19 09:08:50;;;;;;;28.35;17.25;;;20.60;99.90;;;;;;5028591;28;20036;-67
2022/08/19 09:11:43;;;;;;;29.10;18.15;;;20.60;99.90;;;;;;5033391;28;20045;-67
2022/08/19 09:14:51;;;;;;;28.65;18.52;;;20.60;99.90;;;;;;5035135;28;20044;-69
2022/08/19 09:17:26;;;;;;;30.98;18.10;;;20.50;99.90;;;;;;4965530;28;20086;-68
2022/08/19 09:19:53;;;;;;;25.95;16.30;;;20.40;99.90;;;;;;4968441;28;20046;-69
2022/08/19 09:22:21;;;;;;;35.75;16.77;;;20.60;99.90;;;;;;5000536;28;20052;-70
2022/08/19 09:24:52;;;;;;;30.05;16.83;;;20.50;99.90;;;;;;5033390;28;20025;-69
2022/08/19 09:27:20;;;;;;;51.22;18.63;;;20.70;99.90;;;;;;5034264;28;20044;-70
2022/08/19 09:29:48;;;;;;;35.53;18.13;;;20.90;99.90;;;;;;5033696;28;20511;-67
2022/08/19 09:32:15;;;;;;;28.75;16.95;;;20.90;99.90;;;;;;5031810;28;20029;-67
2022/08/19 09:34:41;;;;;;;32.00;17.48;;;20.60;99.90;;;;;;5032307;28;20393;-67
2022/08/19 09:37:07;;;;;;;25.98;15.98;;;20.60;99.90;;;;;;5037814;28;20025;-67
2022/08/19 09:39:32;;;;;;;33.65;17.48;;;20.50;99.90;;;;;;5033043;28;20048;-67
2022/08/19 09:41:58;;;;;;;34.22;17.35;;;20.20;99.90;;;;;;5031739;28;20594;-67
2022/08/19 09:44:25;;;;;;;33.40;18.13;;;20.10;99.90;;;;;;5031791;28;20103;-67
2022/08/19 09:46:51;;;;;;;34.42;18.25;;;20.00;99.90;;;;;;5031872;28;20038;-66
2022/08/19 09:49:18;;;;;;;38.33;19.05;;;20.20;99.90;;;;;;5035578;28;20390;-67
2022/08/19 09:51:45;;;;;;;38.97;18.30;;;20.20;99.90;;;;;;5031966;28;20101;-69
2022/08/19 09:54:11;;;;;;;37.40;19.40;;;20.40;99.90;;;;;;5031520;28;20049;-69
2022/08/19 09:56:37;;;;;;;37.05;17.92;;;20.40;99.90;;;;;;5031930;28;20018;-67
2022/08/19 09:59:03;;;;;;;30.77;16.88;;;20.50;99.90;;;;;;5037885;28;20029;-67
2022/08/19 10:01:30;;;;;;;32.70;17.33;;;20.40;99.90;;;;;;5043655;28;20013;-67
2022/08/19 10:03:58;;;;;;;32.00;17.73;;;20.30;99.90;;;;;;5037368;28;20029;-67
2022/08/19 10:06:33;;;;;;;29.73;16.83;;;20.50;99.90;;;;;;5047209;28;20036;-69
2022/08/19 10:08:59;;;;;;;31.92;17.02;;;20.80;99.90;;;;;;5047504;28;20040;-68
2022/08/19 10:11:26;;;;;;;30.67;15.38;;;20.80;99.90;;;;;;5042017;28;20021;-67
2022/08/19 10:13:52;;;;;;;25.13;15.38;;;20.80;99.90;;;;;;5039044;28;20116;-67
2022/08/19 10:16:22;;;;;;;26.38;15.55;;;20.90;99.90;;;;;;5036692;28;20101;-68
2022/08/19 10:18:49;;;;;;;27.35;14.60;;;20.90;99.90;;;;;;5035284;28;20508;-68
2022/08/19 10:21:23;;;;;;;26.83;14.45;;;20.80;99.90;;;;;;5037630;28;20021;-67
2022/08/19 10:23:51;;;;;;;22.90;14.20;;;20.60;99.90;;;;;;5045342;28;20029;-67
2022/08/19 10:26:26;;;;;;;26.42;14.70;;;20.70;99.90;;;;;;5066453;22;20048;-73
2022/08/19 10:28:52;;;;;;;28.50;14.15;;;20.70;99.90;;;;;;5054745;28;20072;-69
2022/08/19 10:31:27;;;;;;;23.58;14.02;;;20.90;99.90;;;;;;5058948;28;20849;-71
2022/08/19 10:33:57;;;;;;;28.30;15.20;;;20.90;99.90;;;;;;5077954;28;20019;-73
2022/08/19 10:36:32;;;;;;;24.75;15.35;;;20.90;99.90;;;;;;5042391;28;20029;-71
2022/08/19 10:39:02;;;;;;;33.63;17.17;;;21.30;99.90;;;;;;5053605;28;20405;-72
2022/08/19 10:41:34;;;;;;;25.63;14.88;;;21.20;99.90;;;;;;5063382;28;20107;-76
2022/08/19 10:44:01;;;;;;;;;;;21.40;99.90;;;;;;5040688;28;20079;-69
2022/08/19 10:46:31;;;;;;;25.63;14.60;;;21.40;99.90;;;;;;5036329;28;19908;-70
2022/08/19 10:48:56;;;;;;;29.88;14.02;;;21.40;99.90;;;;;;5036626;28;20040;-70
2022/08/19 10:54:07;;;;;;;22.90;14.13;;;21.50;99.90;;;;;;5036166;28;20029;-73
2022/08/19 10:56:52;;;;;;;24.52;14.20;;;21.60;99.90;;;;;;5037352;28;20528;-71
2022/08/19 10:59:28;;;;;;;26.52;13.65;;;21.70;99.90;;;;;;5045789;28;20032;-71
2022/08/19 11:02:06;;;;;;;21.58;12.90;;;21.70;99.90;;;;;;5053802;28;20021;-73
2022/08/19 11:04:33;;;;;;;24.10;13.73;;;21.60;99.90;;;;;;5046790;28;20036;-74
2022/08/19 11:06:59;;;;;;;23.02;13.15;;;21.70;99.90;;;;;;5045395;28;20112;-75
2022/08/19 11:09:27;;;;;;;18.27;12.73;;;22.10;99.90;;;;;;5045964;28;20057;-73
2022/08/19 11:11:53;;;;;;;20.55;12.82;;;22.00;99.90;;;;;;5048916;28;20373;-69
2022/08/19 11:14:20;;;;;;;21.15;13.02;;;22.30;99.90;;;;;;5046465;28;21534;-75
2022/08/19 11:16:48;;;;;;;25.10;12.93;;;21.90;99.90;;;;;;5049725;28;20018;-74
2022/08/19 11:19:18;;;;;;;19.83;11.10;;;21.90;99.90;;;;;;5045444;28;20036;-74
2022/08/19 11:21:47;;;;;;;15.40;11.50;;;22.00;99.90;;;;;;5050319;28;20052;-75
2022/08/19 11:24:20;;;;;;;18.85;10.30;;;22.10;99.90;;;;;;5045209;28;20025;-75
2022/08/19 11:26:50;;;;;;;16.42;10.82;;;22.40;99.90;;;;;;5050062;28;20060;-74
2022/08/19 11:29:19;;;;;;;17.35;11.07;;;22.50;99.90;;;;;;5045207;28;20030;-73
2022/08/19 11:31:47;;;;;;;14.07;10.25;;;22.50;99.90;;;;;;5044183;28;20021;-71
2022/08/19 11:34:16;;;;;;;14.10;9.82;;;22.20;99.90;;;;;;5046745;28;20030;-71
2022/08/19 11:36:44;;;;;;;20.10;10.00;;;22.60;99.90;;;;;;5048793;28;20025;-73
2022/08/19 11:39:13;;;;;;;13.60;9.10;;;23.00;99.90;;;;;;5047986;28;20036;-71
2022/08/19 11:41:39;;;;;;;17.65;9.55;;;23.20;99.90;;;;;;5047653;28;20032;-70
2022/08/19 11:44:07;;;;;;;14.15;9.25;;;23.40;99.90;;;;;;5052148;28;20021;-72
2022/08/19 11:46:34;;;;;;;11.07;8.40;;;23.30;99.90;;;;;;5046283;28;20070;-72
2022/08/19 11:49:02;;;;;;;11.93;8.02;;;23.00;99.90;;;;;;5049849;28;20025;-71
2022/08/19 11:51:29;;;;;;;15.82;8.13;;;23.00;99.90;;;;;;5045036;28;20025;-71
2022/08/19 11:53:57;;;;;;;13.75;7.68;;;23.10;99.90;;;;;;5049801;28;20091;-70
2022/08/19 11:56:24;;;;;;;10.60;6.60;;;23.50;99.90;;;;;;5045787;28;20040;-70
2022/08/19 11:58:52;;;;;;;13.02;6.63;;;23.30;99.90;;;;;;5049490;28;20060;-70
2022/08/19 12:01:20;;;;;;;10.13;6.25;;;23.30;99.90;;;;;;5054118;28;20021;-72
2022/08/19 12:03:48;;;;;;;7.78;5.70;;;23.90;99.90;;;;;;5054012;28;20017;-70
2022/08/19 12:06:28;;;;;;;9.95;5.78;;;23.90;99.90;;;;;;5054062;28;20354;-70
2022/08/19 12:08:55;;;;;;;8.93;5.80;;;23.70;99.90;;;;;;5054036;28;20025;-73
2022/08/19 12:11:22;;;;;;;20.20;7.53;;;23.80;99.90;;;;;;5053877;28;20028;-71
2022/08/19 12:13:47;;;;;;;9.52;6.30;;;23.80;99.90;;;;;;5053445;28;20029;-73
2022/08/19 12:16:34;;;;;;;15.20;7.15;;;23.50;99.90;;;;;;5053743;28;20031;-71
2022/08/19 12:19:03;;;;;;;8.38;6.30;;;23.40;99.90;;;;;;5053673;28;20095;-71
2022/08/19 12:21:32;;;;;;;14.63;5.82;;;23.40;99.90;;;;;;5053872;28;20037;-71
2022/08/19 12:23:59;;;;;;;12.30;5.93;;;23.90;99.90;;;;;;5051466;28;20174;-69
2022/08/19 12:26:27;;;;;;;6.13;5.35;;;24.40;99.90;;;;;;5053530;28;20083;-71
2022/08/19 12:28:53;;;;;;;6.78;5.30;;;24.10;99.90;;;;;;5053206;28;20021;-72
2022/08/19 12:31:19;;;;;;;7.45;4.63;;;23.80;99.90;;;;;;5053773;28;20036;-71
2022/08/19 12:33:46;;;;;;;5.78;4.03;;;23.60;99.90;;;;;;5053659;28;20059;-71
2022/08/19 12:36:15;;;;;;;4.72;3.78;;;23.60;99.90;;;;;;5035342;28;20517;-72
2022/08/19 12:38:41;;;;;;;12.02;4.57;;;23.60;99.90;;;;;;5053770;28;20028;-72
2022/08/19 12:41:11;;;;;;;7.78;4.47;;;23.80;99.90;;;;;;5053211;28;20021;-68
2022/08/19 12:43:38;;;;;;;10.70;4.25;;;23.60;99.90;;;;;;5051305;28;20031;-75
2022/08/19 12:46:04;;;;;;;6.85;4.45;;;23.60;99.90;;;;;;5053043;28;20021;-71
2022/08/19 12:48:31;;;;;;;6.85;3.90;;;23.40;99.90;;;;;;5053228;28;20083;-71
2022/08/19 12:50:57;;;;;;;7.75;4.15;;;23.60;99.90;;;;;;5052956;28;20060;-73
2022/08/19 12:53:23;;;;;;;7.28;3.95;;;23.60;99.90;;;;;;5053294;28;20496;-71
2022/08/19 12:55:56;;;;;;;11.35;4.15;;;23.70;99.90;;;;;;5053062;28;20036;-74